Time;durP1;ratioP1;P1;durP2;ratioP2;P2;SDS_P1;SDS_P2;PMS_P1;PMS_P2;Temp;Humidity;BMP_temperature;BMP_pressure;BME280_temperature;BME280_humidity;BME280_pressure;Samples;Min_cycle;Max_cycle;Signal;HPM_P1;HPM_P2
2022/09/24 00:01:49;;;;;;;69.40;44.42;;;13.60;99.90;;;;;;5029737;28;20403;-65
2022/09/24 00:04:15;;;;;;;68.13;44.47;;;13.60;99.90;;;;;;5030269;28;20080;-65
2022/09/24 00:06:45;;;;;;;70.05;44.58;;;13.60;99.90;;;;;;5031055;28;20065;-65
2022/09/24 00:09:13;;;;;;;69.32;44.53;;;13.60;99.90;;;;;;5027792;28;20487;-65
2022/09/24 00:11:40;;;;;;;70.97;44.63;;;13.60;99.90;;;;;;5030073;28;20045;-66
2022/09/24 00:14:06;;;;;;;77.00;44.25;;;13.60;99.90;;;;;;5010939;28;20037;-65
2022/09/24 00:16:33;;;;;;;72.00;43.60;;;13.60;99.90;;;;;;5025244;28;20068;-67
2022/09/24 00:19:00;;;;;;;73.85;44.88;;;13.60;99.90;;;;;;5029174;28;20091;-65
2022/09/24 00:21:31;;;;;;;73.40;45.38;;;13.60;99.90;;;;;;5012542;28;20072;-65
2022/09/24 00:24:04;;;;;;;71.32;45.13;;;13.60;99.90;;;;;;5028076;28;20038;-66
2022/09/24 00:29:20;;;;;;;71.70;44.00;;;13.50;99.90;;;;;;5043174;28;20041;-65
2022/09/24 00:31:46;;;;;;;70.65;43.35;;;13.50;99.90;;;;;;5045877;28;20037;-65
2022/09/24 00:34:11;;;;;;;71.53;43.50;;;13.50;99.90;;;;;;5048578;28;20155;-65
2022/09/24 00:36:37;;;;;;;75.20;44.15;;;13.50;99.90;;;;;;5056678;28;20534;-65
2022/09/24 00:39:04;;;;;;;73.38;44.25;;;13.50;99.90;;;;;;5056887;28;20025;-65
2022/09/24 00:41:33;;;;;;;70.78;43.30;;;13.50;99.90;;;;;;5050547;28;20513;-65
2022/09/24 00:44:00;;;;;;;73.57;42.97;;;13.60;99.90;;;;;;5055017;28;20498;-65
2022/09/24 00:46:36;;;;;;;82.13;43.60;;;13.50;99.90;;;;;;5056504;28;20441;-65
2022/09/24 00:49:14;;;;;;;73.68;44.38;;;13.50;99.90;;;;;;5051207;28;20047;-65
2022/09/24 00:51:42;;;;;;;81.30;46.08;;;13.50;99.90;;;;;;5049556;28;20049;-65
2022/09/24 00:54:14;;;;;;;77.45;44.97;;;13.50;99.90;;;;;;5056566;28;20033;-65
2022/09/24 00:56:42;;;;;;;78.55;44.63;;;13.50;99.90;;;;;;5053115;28;20072;-65
2022/09/24 00:59:15;;;;;;;72.15;42.75;;;13.60;99.90;;;;;;5049128;28;20037;-65
2022/09/24 01:01:43;;;;;;;79.53;43.70;;;13.50;99.90;;;;;;5048233;28;20481;-65
2022/09/24 01:04:10;;;;;;;75.05;43.28;;;13.50;99.90;;;;;;5056360;28;20037;-65
2022/09/24 01:06:36;;;;;;;71.72;43.95;;;13.50;99.90;;;;;;5028488;28;20049;-65
2022/09/24 01:09:02;;;;;;;77.43;43.67;;;13.50;99.90;;;;;;5056449;28;20052;-65
2022/09/24 01:11:55;;;;;;;79.90;43.85;;;13.50;99.90;;;;;;5056438;28;20479;-65
2022/09/24 01:14:33;;;;;;;78.40;42.70;;;13.50;99.90;;;;;;5051091;28;20060;-65
2022/09/24 01:17:22;;;;;;;75.05;45.50;;;13.50;99.90;;;;;;5056120;28;20037;-65
2022/09/24 01:20:01;;;;;;;82.28;43.28;;;13.50;99.90;;;;;;5056777;28;20041;-65
2022/09/24 01:23:04;;;;;;;76.60;44.17;;;13.50;99.90;;;;;;5028510;28;20047;-65
2022/09/24 01:25:33;;;;;;;77.15;43.55;;;13.50;99.90;;;;;;5050524;28;20071;-65
2022/09/24 01:28:18;;;;;;;81.00;44.17;;;13.50;99.90;;;;;;5056646;28;20053;-65
2022/09/24 01:30:46;;;;;;;77.88;44.17;;;13.50;99.90;;;;;;5053631;28;20077;-64
2022/09/24 01:33:18;;;;;;;75.75;43.35;;;13.50;99.90;;;;;;5046557;28;20040;-65
2022/09/24 01:35:49;;;;;;;77.72;43.28;;;13.50;99.90;;;;;;5052571;28;20565;-65
2022/09/24 01:38:20;;;;;;;72.60;41.55;;;13.50;99.90;;;;;;5053276;28;20104;-65
2022/09/24 01:40:48;;;;;;;77.32;43.63;;;13.50;99.90;;;;;;5055827;28;20558;-65
2022/09/24 01:43:16;;;;;;;72.40;42.78;;;13.50;99.90;;;;;;5036457;28;20055;-65
2022/09/24 01:45:42;;;;;;;80.70;42.38;;;13.50;99.90;;;;;;5035574;28;20043;-65
2022/09/24 01:48:08;;;;;;;73.10;42.53;;;13.50;99.90;;;;;;5045584;28;20059;-65
2022/09/24 01:50:47;;;;;;;72.05;41.78;;;13.50;99.90;;;;;;5051179;28;20071;-65
2022/09/24 01:53:20;;;;;;;75.55;41.28;;;13.50;99.90;;;;;;5052939;28;20041;-65
2022/09/24 01:55:51;;;;;;;78.93;42.45;;;13.50;99.90;;;;;;5048148;28;20132;-65
2022/09/24 01:58:30;;;;;;;76.53;40.40;;;13.50;99.90;;;;;;5052455;28;20473;-65
2022/09/24 02:01:04;;;;;;;75.38;41.20;;;13.50;99.90;;;;;;5034360;28;20049;-65
2022/09/24 02:03:38;;;;;;;78.13;43.30;;;13.50;99.90;;;;;;5053297;28;20450;-65
2022/09/24 02:06:13;;;;;;;81.68;43.35;;;13.50;99.90;;;;;;5048083;28;20035;-65
2022/09/24 02:08:45;;;;;;;78.28;42.55;;;13.50;99.90;;;;;;5052404;28;20045;-65
2022/09/24 02:11:17;;;;;;;77.78;41.90;;;13.50;99.90;;;;;;5049465;28;20041;-65
2022/09/24 02:14:12;;;;;;;74.47;39.90;;;13.50;99.90;;;;;;5050951;28;20037;-65
2022/09/24 02:16:40;;;;;;;73.32;40.28;;;13.50;99.90;;;;;;5052270;28;20068;-65
2022/09/24 02:19:12;;;;;;;73.68;40.90;;;13.50;99.90;;;;;;5051288;28;20064;-64
2022/09/24 02:21:39;;;;;;;79.85;43.13;;;13.50;99.90;;;;;;5044806;28;20056;-65
2022/09/24 02:24:33;;;;;;;79.35;41.97;;;13.40;99.90;;;;;;5052268;28;20220;-65
2022/09/24 02:26:59;;;;;;;74.55;41.25;;;13.40;99.90;;;;;;5051108;28;20579;-65
2022/09/24 02:29:24;;;;;;;79.72;41.28;;;13.40;99.90;;;;;;5037955;28;20129;-65
2022/09/24 02:31:53;;;;;;;82.13;41.83;;;13.40;99.90;;;;;;5024495;28;20064;-65
2022/09/24 02:34:28;;;;;;;76.78;40.90;;;13.40;99.90;;;;;;5033862;28;20041;-65
2022/09/24 02:37:02;;;;;;;77.40;41.42;;;13.40;99.90;;;;;;5048634;28;20041;-65
2022/09/24 02:39:27;;;;;;;68.07;36.33;;;13.40;99.90;;;;;;5045189;28;20657;-65
2022/09/24 02:41:54;;;;;;;82.93;43.00;;;13.30;99.90;;;;;;5049913;28;20065;-65
2022/09/24 02:44:21;;;;;;;85.05;43.50;;;13.40;99.90;;;;;;5049248;28;20090;-65
2022/09/24 02:46:47;;;;;;;81.65;42.10;;;13.40;99.90;;;;;;5042564;28;20431;-65
2022/09/24 02:49:13;;;;;;;79.43;41.88;;;13.40;99.90;;;;;;5051140;28;20054;-65
2022/09/24 02:51:40;;;;;;;86.28;43.75;;;13.40;99.90;;;;;;5050111;28;20043;-65
2022/09/24 02:54:06;;;;;;;81.40;44.47;;;13.30;99.90;;;;;;5045413;28;20041;-65
2022/09/24 02:56:32;;;;;;;84.40;43.60;;;13.30;99.90;;;;;;5048124;28;20037;-65
2022/09/24 02:58:59;;;;;;;84.57;43.80;;;13.40;99.90;;;;;;5033899;28;20044;-65
2022/09/24 03:01:25;;;;;;;81.05;43.22;;;13.30;99.90;;;;;;5039604;28;20130;-65
2022/09/24 03:03:51;;;;;;;86.13;43.65;;;13.40;99.90;;;;;;5048529;28;20045;-65
2022/09/24 03:06:16;;;;;;;81.75;43.25;;;13.30;99.90;;;;;;5051285;28;20028;-65
2022/09/24 03:08:43;;;;;;;82.25;43.85;;;13.30;99.90;;;;;;5051738;28;20095;-65
2022/09/24 03:11:10;;;;;;;82.18;43.13;;;13.40;99.90;;;;;;5027641;28;20518;-65
2022/09/24 03:13:36;;;;;;;84.80;43.38;;;13.30;99.90;;;;;;5050726;28;20120;-65
2022/09/24 03:16:03;;;;;;;85.40;45.20;;;13.30;99.90;;;;;;5050886;28;20033;-65
2022/09/24 03:18:28;;;;;;;81.30;43.45;;;13.30;99.90;;;;;;5046101;28;20033;-65
2022/09/24 03:21:00;;;;;;;82.28;43.45;;;13.30;99.90;;;;;;5027806;28;20132;-65
2022/09/24 03:23:25;;;;;;;82.50;43.60;;;13.30;99.90;;;;;;5049498;28;20502;-65
2022/09/24 03:25:51;;;;;;;84.20;43.47;;;13.30;99.90;;;;;;5050836;28;20072;-65
2022/09/24 03:28:17;;;;;;;86.43;44.63;;;13.30;99.90;;;;;;5048184;28;20041;-65
2022/09/24 03:30:58;;;;;;;83.10;44.08;;;13.30;99.90;;;;;;5032635;28;20065;-65
2022/09/24 03:33:26;;;;;;;84.72;45.83;;;13.20;99.90;;;;;;5048322;28;20365;-65
2022/09/24 03:36:06;;;;;;;90.53;45.65;;;13.20;99.90;;;;;;5037765;28;20432;-65
2022/09/24 03:38:33;;;;;;;90.72;46.25;;;13.20;99.90;;;;;;5049238;28;20446;-65
2022/09/24 03:40:59;;;;;;;88.05;44.35;;;13.20;99.90;;;;;;5050350;28;20041;-65
2022/09/24 03:43:25;;;;;;;92.57;46.72;;;13.20;99.90;;;;;;5045506;28;20064;-65
2022/09/24 03:45:51;;;;;;;85.72;45.17;;;13.30;99.90;;;;;;5032038;28;20491;-65
2022/09/24 03:48:19;;;;;;;86.93;45.67;;;13.30;99.90;;;;;;5050535;28;20029;-65
2022/09/24 03:50:45;;;;;;;85.50;44.55;;;13.30;99.90;;;;;;5050419;28;20563;-65
2022/09/24 03:53:12;;;;;;;83.90;44.92;;;13.30;99.90;;;;;;5041354;28;20033;-65
2022/09/24 03:55:45;;;;;;;86.32;44.25;;;13.30;99.90;;;;;;5045901;28;20079;-65
2022/09/24 03:58:12;;;;;;;88.75;44.95;;;13.30;99.90;;;;;;5033172;28;20102;-65
2022/09/24 04:00:38;;;;;;;84.10;43.67;;;13.20;99.90;;;;;;5050853;28;20051;-64
2022/09/24 04:03:04;;;;;;;86.45;44.80;;;13.20;99.90;;;;;;5046126;28;20597;-65
2022/09/24 04:05:31;;;;;;;83.70;44.42;;;13.20;99.90;;;;;;5050310;28;20036;-65
2022/09/24 04:07:58;;;;;;;89.45;45.60;;;13.20;99.90;;;;;;5046226;28;20411;-65
2022/09/24 04:10:24;;;;;;;86.10;45.55;;;13.20;99.90;;;;;;5028200;28;20095;-65
2022/09/24 04:12:54;;;;;;;85.43;45.15;;;13.20;99.90;;;;;;5047359;28;20419;-65
2022/09/24 04:15:20;;;;;;;89.30;45.22;;;13.20;99.90;;;;;;5032804;28;20037;-65
2022/09/24 04:17:56;;;;;;;87.90;43.80;;;13.20;99.90;;;;;;5047089;28;20040;-65
2022/09/24 04:20:25;;;;;;;86.57;44.17;;;13.20;99.90;;;;;;5044149;28;20052;-65
2022/09/24 04:22:53;;;;;;;83.95;44.50;;;13.30;99.90;;;;;;5032286;28;20045;-65
2022/09/24 04:25:19;;;;;;;82.20;42.97;;;13.30;99.90;;;;;;5043257;28;20040;-65
2022/09/24 04:27:46;;;;;;;84.82;44.40;;;13.30;99.90;;;;;;5046525;28;20051;-64
2022/09/24 04:30:13;;;;;;;79.97;42.13;;;13.20;99.90;;;;;;5050516;28;20044;-65
2022/09/24 04:32:40;;;;;;;79.20;41.40;;;13.30;99.90;;;;;;5047668;28;20045;-65
2022/09/24 04:35:07;;;;;;;81.40;41.65;;;13.20;99.90;;;;;;5045047;28;20045;-65
2022/09/24 04:37:32;;;;;;;84.15;41.83;;;13.30;99.90;;;;;;5051456;28;20063;-65
2022/09/24 04:39:58;;;;;;;82.53;42.15;;;13.30;99.90;;;;;;5050517;28;20486;-64
2022/09/24 04:42:25;;;;;;;80.32;42.25;;;13.30;99.90;;;;;;5043005;28;20380;-65
2022/09/24 04:44:50;;;;;;;79.45;42.47;;;13.30;99.90;;;;;;5048964;28;20033;-65
2022/09/24 04:47:16;;;;;;;80.50;41.10;;;13.30;99.90;;;;;;5031445;28;20706;-65
2022/09/24 04:49:44;;;;;;;79.95;43.38;;;13.30;99.90;;;;;;5042375;28;20044;-65
2022/09/24 04:52:13;;;;;;;79.82;39.85;;;13.40;99.90;;;;;;5041448;28;20120;-65
2022/09/24 04:54:41;;;;;;;76.75;39.88;;;13.40;99.90;;;;;;5045773;28;20125;-64
2022/09/24 04:57:07;;;;;;;78.60;40.33;;;13.40;99.90;;;;;;5041662;28;20039;-65
2022/09/24 04:59:32;;;;;;;78.90;40.97;;;13.40;99.90;;;;;;5037975;28;20041;-65
2022/09/24 05:01:58;;;;;;;75.70;40.38;;;13.30;99.90;;;;;;5031636;28;20416;-65
2022/09/24 05:04:24;;;;;;;76.10;40.00;;;13.30;99.90;;;;;;5045492;28;20036;-65
2022/09/24 05:06:50;;;;;;;74.80;39.17;;;13.40;99.90;;;;;;5034649;28;20029;-65
2022/09/24 05:09:15;;;;;;;77.38;39.33;;;13.30;99.90;;;;;;5044437;28;20059;-65
2022/09/24 05:11:41;;;;;;;75.88;39.20;;;13.40;99.90;;;;;;5049535;28;20045;-65
2022/09/24 05:14:07;;;;;;;77.57;37.92;;;13.40;99.90;;;;;;5032068;28;20037;-65
2022/09/24 05:16:33;;;;;;;75.28;39.47;;;13.40;99.90;;;;;;5038645;28;20037;-65
2022/09/24 05:18:58;;;;;;;72.53;37.20;;;13.40;99.90;;;;;;5040943;28;20759;-65
2022/09/24 05:21:24;;;;;;;73.28;37.40;;;13.40;99.90;;;;;;5051370;28;20419;-65
2022/09/24 05:23:49;;;;;;;75.75;38.17;;;13.40;99.90;;;;;;5053823;28;20106;-64
2022/09/24 05:28:59;;;;;;;76.88;37.88;;;13.40;99.90;;;;;;5034539;28;20647;-65
2022/09/24 05:31:25;;;;;;;73.68;37.40;;;13.40;99.90;;;;;;5042630;28;22348;-65
2022/09/24 05:33:50;;;;;;;77.63;37.53;;;13.40;99.90;;;;;;5042113;28;20060;-64
2022/09/24 05:36:18;;;;;;;75.13;36.58;;;13.40;99.90;;;;;;5050086;28;20037;-64
2022/09/24 05:38:43;;;;;;;72.60;36.17;;;13.40;99.90;;;;;;5050470;28;20072;-64
2022/09/24 05:41:09;;;;;;;80.00;37.47;;;13.40;99.90;;;;;;5043369;28;20080;-64
2022/09/24 05:43:35;;;;;;;73.85;36.22;;;13.40;99.90;;;;;;5044094;28;20119;-64
2022/09/24 05:46:01;;;;;;;76.18;36.58;;;13.40;99.90;;;;;;5049680;28;20052;-64
2022/09/24 05:48:27;;;;;;;77.35;36.25;;;13.40;99.90;;;;;;5045081;28;20040;-64
2022/09/24 05:50:54;;;;;;;76.55;35.80;;;13.50;99.90;;;;;;5047847;28;20117;-64
2022/09/24 05:53:22;;;;;;;70.18;33.75;;;13.50;99.90;;;;;;5024222;28;20410;-64
2022/09/24 05:55:47;;;;;;;76.28;35.13;;;13.50;99.90;;;;;;5048773;28;20036;-64
2022/09/24 05:58:13;;;;;;;74.57;34.15;;;13.60;99.90;;;;;;5050216;28;20037;-64
2022/09/24 06:00:39;;;;;;;72.38;33.70;;;13.60;99.90;;;;;;5049962;28;20040;-65
2022/09/24 06:03:10;;;;;;;74.15;33.47;;;13.60;99.90;;;;;;5035133;28;20032;-64
2022/09/24 06:05:35;;;;;;;74.22;34.67;;;13.60;99.90;;;;;;5041735;28;20038;-64
2022/09/24 06:08:02;;;;;;;69.30;32.72;;;13.60;99.90;;;;;;5047605;28;20048;-64
2022/09/24 06:10:28;;;;;;;72.50;33.55;;;13.60;99.90;;;;;;5049700;28;20033;-64
2022/09/24 06:12:54;;;;;;;73.55;34.00;;;13.60;99.90;;;;;;5032283;28;20631;-64
2022/09/24 06:15:20;;;;;;;71.97;32.70;;;13.60;99.90;;;;;;5048793;28;20056;-63
2022/09/24 06:17:46;;;;;;;72.32;32.00;;;13.60;99.90;;;;;;5049637;28;20107;-63
2022/09/24 06:20:12;;;;;;;71.32;33.08;;;13.70;99.90;;;;;;5047716;28;20037;-63
2022/09/24 06:22:38;;;;;;;70.20;32.85;;;13.70;99.90;;;;;;5037988;28;20697;-64
2022/09/24 06:25:06;;;;;;;76.45;32.15;;;13.70;99.90;;;;;;5039909;28;20044;-63
2022/09/24 06:27:31;;;;;;;67.07;30.85;;;13.70;99.90;;;;;;5045239;28;20419;-63
2022/09/24 06:29:57;;;;;;;71.93;33.35;;;13.70;99.90;;;;;;5049056;28;20047;-63
2022/09/24 06:32:23;;;;;;;67.47;30.73;;;13.70;99.90;;;;;;5049321;28;20499;-64
2022/09/24 06:34:49;;;;;;;67.55;30.85;;;13.80;99.90;;;;;;5047226;28;20514;-64
2022/09/24 06:37:15;;;;;;;69.80;32.08;;;13.80;99.90;;;;;;5049345;28;20053;-63
2022/09/24 06:39:41;;;;;;;67.75;31.55;;;13.80;99.90;;;;;;5028691;28;20076;-64
2022/09/24 06:42:07;;;;;;;67.22;30.38;;;13.90;99.90;;;;;;5041318;28;20037;-63
2022/09/24 06:44:33;;;;;;;61.15;29.83;;;13.90;99.90;;;;;;5051102;28;20041;-65
2022/09/24 06:47:00;;;;;;;62.55;31.50;;;13.90;99.90;;;;;;5051182;28;20692;-65
2022/09/24 06:49:26;;;;;;;62.72;29.73;;;13.90;99.90;;;;;;5042205;28;20124;-64
2022/09/24 06:51:55;;;;;;;68.65;31.13;;;13.90;99.90;;;;;;5031700;28;20090;-65
2022/09/24 06:54:21;;;;;;;63.28;31.73;;;13.90;99.90;;;;;;5052579;28;20043;-65
2022/09/24 06:56:47;;;;;;;62.45;29.60;;;14.00;99.90;;;;;;5037302;28;20055;-65
2022/09/24 06:59:13;;;;;;;63.83;30.92;;;14.00;99.90;;;;;;5052309;28;20472;-65
2022/09/24 07:01:39;;;;;;;56.92;30.33;;;14.00;99.90;;;;;;5052037;28;20043;-65
2022/09/24 07:04:04;;;;;;;58.25;29.83;;;14.10;99.90;;;;;;5039753;28;20041;-65
2022/09/24 07:07:28;;;;;;;57.40;30.13;;;14.10;99.90;;;;;;5044350;28;20376;-65
2022/09/24 07:09:15;;;;;;;58.33;30.25;;;14.10;99.90;;;;;;5051425;28;20036;-64
2022/09/24 07:11:43;;;;;;;59.72;30.23;;;14.20;99.90;;;;;;5043272;28;20403;-65
2022/09/24 07:14:09;;;;;;;56.95;29.92;;;14.10;99.90;;;;;;5047487;28;20581;-65
2022/09/24 07:16:35;;;;;;;56.20;29.48;;;14.10;99.90;;;;;;5033782;28;20115;-66
2022/09/24 07:19:00;;;;;;;56.55;29.42;;;14.20;99.90;;;;;;5033739;28;20094;-65
2022/09/24 07:21:27;;;;;;;56.08;29.60;;;14.20;99.90;;;;;;5046958;28;20094;-65
2022/09/24 07:23:53;;;;;;;56.53;30.42;;;14.20;99.90;;;;;;5032821;28;20124;-66
2022/09/24 07:26:18;;;;;;;56.42;29.80;;;14.20;99.90;;;;;;5050963;28;20443;-67
2022/09/24 07:28:44;;;;;;;57.72;29.92;;;14.20;99.90;;;;;;5043666;28;20044;-68
2022/09/24 07:31:09;;;;;;;55.65;29.63;;;14.30;99.90;;;;;;5037981;28;20072;-68
2022/09/24 07:33:35;;;;;;;54.50;30.13;;;14.30;99.90;;;;;;5035412;28;20048;-68
2022/09/24 07:36:06;;;;;;;56.60;30.40;;;14.20;99.90;;;;;;5047480;28;20495;-68
2022/09/24 07:38:33;;;;;;;53.25;28.83;;;14.20;99.90;;;;;;5046628;28;20126;-68
2022/09/24 07:40:58;;;;;;;54.47;28.83;;;14.20;99.90;;;;;;5052714;28;20055;-65
2022/09/24 07:43:24;;;;;;;56.70;29.75;;;14.20;99.90;;;;;;5051018;28;20041;-66
2022/09/24 07:45:51;;;;;;;56.83;30.50;;;14.20;99.90;;;;;;5033037;28;20037;-66
2022/09/24 07:48:18;;;;;;;58.92;30.02;;;14.20;99.90;;;;;;5048375;28;20061;-65
2022/09/24 07:50:43;;;;;;;58.67;29.65;;;14.10;99.90;;;;;;5025385;28;20053;-63
2022/09/24 07:53:11;;;;;;;59.17;30.20;;;14.10;99.90;;;;;;5043063;28;20043;-63
2022/09/24 07:55:39;;;;;;;57.30;29.80;;;14.10;99.90;;;;;;5038152;28;20554;-65
2022/09/24 07:58:06;;;;;;;60.90;30.88;;;14.10;99.90;;;;;;5049395;28;20033;-66
2022/09/24 08:00:32;;;;;;;57.75;29.25;;;14.10;99.90;;;;;;5044705;28;20048;-64
2022/09/24 08:02:58;;;;;;;57.13;29.58;;;14.10;99.90;;;;;;5025845;28;20044;-65
2022/09/24 08:05:24;;;;;;;59.92;29.83;;;14.10;99.90;;;;;;5049557;28;20052;-65
2022/09/24 08:07:54;;;;;;;56.35;28.90;;;14.10;99.90;;;;;;5024117;28;20087;-65
2022/09/24 08:10:21;;;;;;;59.20;29.80;;;14.10;99.90;;;;;;5033266;28;20119;-66
2022/09/24 08:12:47;;;;;;;60.00;29.02;;;14.10;99.90;;;;;;5042059;28;20055;-66
2022/09/24 08:15:13;;;;;;;60.83;29.70;;;14.10;99.90;;;;;;5050030;28;20040;-65
2022/09/24 08:17:38;;;;;;;57.58;28.48;;;14.10;99.90;;;;;;5047831;28;20041;-65
2022/09/24 08:20:04;;;;;;;56.50;28.60;;;14.10;99.90;;;;;;5040833;28;20029;-65
2022/09/24 08:22:30;;;;;;;54.20;28.15;;;14.10;99.90;;;;;;5049995;28;20029;-65
2022/09/24 08:24:56;;;;;;;56.15;28.08;;;14.20;99.90;;;;;;5050095;28;20094;-64
2022/09/24 08:27:24;;;;;;;50.42;25.45;;;14.20;99.90;;;;;;5043881;28;20061;-65
2022/09/24 08:29:50;;;;;;;50.22;25.58;;;14.20;99.90;;;;;;5022515;28;20048;-65
2022/09/24 08:32:16;;;;;;;49.78;23.75;;;14.20;99.90;;;;;;5035554;28;20557;-65
2022/09/24 08:34:44;;;;;;;39.88;21.67;;;14.20;99.90;;;;;;5045607;28;20495;-64
2022/09/24 08:37:10;;;;;;;42.10;21.92;;;14.20;99.90;;;;;;5027801;28;20045;-65
2022/09/24 08:39:36;;;;;;;36.10;20.23;;;14.20;99.90;;;;;;5049466;28;20238;-65
2022/09/24 08:42:11;;;;;;;31.23;17.33;;;14.20;99.90;;;;;;5050324;28;20037;-66
2022/09/24 08:47:47;;;;;;;34.30;19.17;;;14.30;99.90;;;;;;5028081;28;20049;-64
2022/09/24 08:50:26;;;;;;;36.72;18.20;;;14.40;99.90;;;;;;5042543;28;20079;-65
2022/09/24 08:53:11;;;;;;;30.33;15.13;;;14.50;99.90;;;;;;5044625;28;20041;-66
2022/09/24 08:55:41;;;;;;;30.27;16.65;;;14.60;99.90;;;;;;5049924;28;20072;-64
2022/09/24 08:58:15;;;;;;;33.80;17.58;;;14.60;99.90;;;;;;5038388;28;20040;-65
2022/09/24 09:01:10;;;;;;;26.15;15.95;;;14.60;99.90;;;;;;5035451;28;20403;-65
2022/09/24 09:03:54;;;;;;;28.17;15.40;;;14.70;99.90;;;;;;4984676;28;20273;-65
2022/09/24 09:06:40;;;;;;;25.58;15.25;;;14.80;99.90;;;;;;5054367;28;20053;-65
2022/09/24 09:09:28;;;;;;;25.65;14.40;;;14.80;99.90;;;;;;5043918;28;20041;-65
2022/09/24 09:12:03;;;;;;;28.27;14.65;;;14.80;99.90;;;;;;5046445;28;20087;-66
2022/09/24 09:14:41;;;;;;;24.30;13.90;;;14.80;99.90;;;;;;5035941;28;20049;-65
2022/09/24 09:17:30;;;;;;;26.08;14.60;;;14.80;99.90;;;;;;5046122;28;20060;-63
2022/09/24 09:20:00;;;;;;;27.35;14.57;;;14.80;99.90;;;;;;5047326;28;20214;-65
2022/09/24 09:22:36;;;;;;;24.52;13.10;;;14.80;99.90;;;;;;5029226;28;20442;-65
2022/09/24 09:25:23;;;;;;;25.33;14.05;;;14.80;99.90;;;;;;5050890;28;20060;-65
2022/09/24 09:28:13;;;;;;;23.50;13.73;;;14.80;99.90;;;;;;5050892;28;20037;-66
2022/09/24 09:30:50;;;;;;;22.33;13.07;;;14.80;99.90;;;;;;5042837;28;20500;-66
2022/09/24 09:33:34;;;;;;;25.10;13.93;;;14.80;99.90;;;;;;5049285;28;20041;-65
2022/09/24 09:36:29;;;;;;;24.85;14.77;;;14.80;99.90;;;;;;5044255;28;20045;-65
2022/09/24 09:38:54;;;;;;;24.60;14.15;;;14.80;99.90;;;;;;5016916;28;20479;-65
2022/09/24 09:41:49;;;;;;;25.75;14.38;;;14.80;99.90;;;;;;5031201;28;20044;-65
2022/09/24 09:44:27;;;;;;;20.25;11.05;;;14.80;99.90;;;;;;5045187;28;20048;-65
2022/09/24 09:47:02;;;;;;;24.27;9.38;;;14.90;99.90;;;;;;5052569;28;20041;-65
2022/09/24 09:49:34;;;;;;;17.15;8.10;;;14.90;99.90;;;;;;5034575;28;20121;-65
2022/09/24 09:52:03;;;;;;;;;;;15.00;99.90;;;;;;5046821;28;20073;-66
2022/09/24 09:54:36;;;;;;;13.05;4.88;;;15.00;99.90;;;;;;5052825;28;19917;-64
2022/09/24 09:57:05;;;;;;;12.50;4.05;;;15.00;99.90;;;;;;5052937;28;20052;-65
2022/09/24 09:59:33;;;;;;;14.40;4.65;;;15.10;99.90;;;;;;5042366;28;20228;-64
2022/09/24 10:01:59;;;;;;;13.48;4.40;;;15.10;99.90;;;;;;5050930;28;20041;-65
2022/09/24 10:04:34;;;;;;;14.35;4.32;;;15.20;99.90;;;;;;5051789;28;20070;-66
2022/09/24 10:07:06;;;;;;;22.25;4.05;;;15.40;99.90;;;;;;5042607;28;20068;-66
2022/09/24 10:09:33;;;;;;;8.52;3.13;;;15.50;99.90;;;;;;5052092;28;20077;-66
2022/09/24 10:12:20;;;;;;;9.57;3.08;;;15.60;99.90;;;;;;5052607;28;20045;-66
2022/09/24 10:15:14;;;;;;;11.32;3.08;;;15.70;99.90;;;;;;5047742;28;20041;-65
2022/09/24 10:17:41;;;;;;;10.50;3.13;;;15.70;99.90;;;;;;5040527;28;20049;-65
2022/09/24 10:20:30;;;;;;;9.15;3.33;;;15.80;99.90;;;;;;5052334;28;20041;-65
2022/09/24 10:23:13;;;;;;;12.65;3.00;;;15.80;99.90;;;;;;5052316;28;20041;-65
2022/09/24 10:25:39;;;;;;;7.90;2.80;;;15.70;99.90;;;;;;5043096;28;20052;-66
2022/09/24 10:31:05;;;;;;;14.30;3.28;;;15.70;99.90;;;;;;5046794;28;20492;-65
2022/09/24 10:33:43;;;;;;;13.87;3.43;;;15.70;99.90;;;;;;5025947;28;20037;-65
2022/09/24 10:36:22;;;;;;;9.48;2.72;;;15.80;99.90;;;;;;5044091;28;20094;-66
2022/09/24 10:38:59;;;;;;;12.85;2.70;;;15.80;99.90;;;;;;5052294;28;20033;-65
2022/09/24 10:41:28;;;;;;;12.60;3.08;;;15.90;99.90;;;;;;5045087;28;20053;-66
2022/09/24 10:43:55;;;;;;;10.27;2.88;;;16.00;99.90;;;;;;5049500;28;20037;-65
2022/09/24 10:46:45;;;;;;;11.82;2.35;;;16.00;99.90;;;;;;5052044;28;20037;-67
2022/09/24 10:49:37;;;;;;;11.18;2.67;;;15.80;99.90;;;;;;5045857;28;20090;-66
2022/09/24 10:52:07;;;;;;;10.88;2.65;;;15.70;99.90;;;;;;5025078;28;20052;-66
2022/09/24 10:54:57;;;;;;;8.95;2.10;;;15.60;99.90;;;;;;5050959;28;20044;-69
2022/09/24 10:57:51;;;;;;;15.90;3.13;;;15.60;99.90;;;;;;5051843;28;20484;-66
2022/09/24 11:00:29;;;;;;;11.38;2.30;;;15.60;99.90;;;;;;5046363;28;20068;-66
2022/09/24 11:03:32;;;;;;;7.28;2.15;;;15.70;99.90;;;;;;5025576;28;20041;-66
2022/09/24 11:06:13;;;;;;;7.22;1.92;;;15.70;99.90;;;;;;5040244;28;20052;-65
2022/09/24 11:08:38;;;;;;;6.72;2.00;;;15.70;99.90;;;;;;5049179;28;20466;-64
2022/09/24 11:11:19;;;;;;;6.95;1.88;;;15.70;99.90;;;;;;5050663;28;20053;-65
2022/09/24 11:14:00;;;;;;;9.18;2.25;;;15.70;99.90;;;;;;5047442;28;20044;-63
2022/09/24 11:16:50;;;;;;;8.75;2.20;;;15.70;99.90;;;;;;5043468;28;20032;-65
2022/09/24 11:19:31;;;;;;;9.80;2.92;;;15.70;99.90;;;;;;5019417;28;20136;-65
2022/09/24 11:22:19;;;;;;;;;;;15.70;99.90;;;;;;5044859;28;20492;-65
2022/09/24 11:25:03;;;;;;;7.53;2.13;;;15.60;99.90;;;;;;5027418;28;19920;-65
2022/09/24 11:27:35;;;;;;;10.23;2.88;;;15.60;99.90;;;;;;5032800;28;20087;-65
2022/09/24 11:30:14;;;;;;;7.93;2.60;;;15.60;99.90;;;;;;5035219;28;20041;-66
2022/09/24 11:32:48;;;;;;;5.45;2.10;;;15.60;99.90;;;;;;5046556;28;20055;-65
2022/09/24 11:35:20;;;;;;;6.25;2.15;;;15.40;99.90;;;;;;5036081;28;20083;-65
2022/09/24 11:38:00;;;;;;;8.35;2.55;;;15.30;99.90;;;;;;5042358;28;20525;-65
2022/09/24 11:40:50;;;;;;;9.45;2.63;;;15.20;99.90;;;;;;5038473;28;20120;-65
2022/09/24 11:43:44;;;;;;;6.40;1.95;;;15.10;99.90;;;;;;5031829;28;20047;-65
2022/09/24 11:46:40;;;;;;;11.32;2.90;;;15.00;99.90;;;;;;5033897;28;20036;-66
2022/09/24 11:49:29;;;;;;;9.73;2.30;;;14.90;99.90;;;;;;5047751;28;20388;-64
2022/09/24 11:52:05;;;;;;;7.68;2.00;;;14.90;99.90;;;;;;5048016;28;20041;-66
2022/09/24 11:54:44;;;;;;;14.07;3.05;;;15.00;99.90;;;;;;5050626;28;20033;-65
2022/09/24 11:57:19;;;;;;;9.65;2.67;;;15.00;99.90;;;;;;5047225;28;20036;-64
2022/09/24 12:00:03;;;;;;;10.73;2.38;;;15.20;99.90;;;;;;5050827;28;20040;-65
2022/09/24 12:02:41;;;;;;;8.05;2.50;;;15.30;99.90;;;;;;5051115;28;20041;-65
2022/09/24 12:05:25;;;;;;;6.20;1.80;;;15.30;99.90;;;;;;5041998;28;20033;-66
2022/09/24 12:08:01;;;;;;;6.90;2.40;;;15.40;99.90;;;;;;5045804;28;20071;-65
2022/09/24 12:10:36;;;;;;;6.28;1.73;;;15.40;99.90;;;;;;5025897;28;20045;-64
2022/09/24 12:13:16;;;;;;;11.43;2.50;;;15.40;99.90;;;;;;5032642;28;20034;-64
2022/09/24 12:15:55;;;;;;;5.75;1.85;;;15.50;99.90;;;;;;5046306;28;20063;-63
2022/09/24 12:18:56;;;;;;;9.90;2.13;;;15.50;99.90;;;;;;5050553;28;20430;-63
2022/09/24 12:21:33;;;;;;;7.05;2.10;;;15.50;99.90;;;;;;5016645;28;20614;-62
2022/09/24 12:24:05;;;;;;;9.07;2.00;;;15.50;99.90;;;;;;5036385;28;20523;-65
2022/09/24 12:26:34;;;;;;;;;;;15.50;99.90;;;;;;5051261;28;20041;-66
2022/09/24 12:32:55;;;;;;;7.30;2.47;;;15.60;99.90;;;;;;5043811;28;20116;-65
2022/09/24 12:35:54;;;;;;;5.70;2.00;;;15.60;99.90;;;;;;5050971;28;20423;-65
2022/09/24 12:38:33;;;;;;;6.95;1.92;;;15.80;99.90;;;;;;5027356;28;20105;-65
2022/09/24 12:41:16;;;;;;;6.85;2.22;;;15.90;99.90;;;;;;5049775;28;20119;-65
2022/09/24 12:43:48;;;;;;;6.10;1.70;;;15.90;99.90;;;;;;5028502;28;20053;-65
2022/09/24 12:46:40;;;;;;;5.18;1.90;;;16.00;99.90;;;;;;5026287;28;20036;-65
2022/09/24 12:49:27;;;;;;;6.82;1.60;;;16.00;99.90;;;;;;5034985;28;20228;-65
2022/09/24 12:52:13;;;;;;;8.90;1.95;;;16.20;99.90;;;;;;5047331;28;20037;-65
2022/09/24 12:54:39;;;;;;;7.82;1.80;;;16.20;99.90;;;;;;5032403;28;20052;-65
2022/09/24 12:57:15;;;;;;;7.80;1.63;;;16.30;99.90;;;;;;5043494;28;20025;-65
2022/09/24 12:59:54;;;;;;;6.55;1.75;;;16.30;99.90;;;;;;5050006;28;20037;-66
2022/09/24 13:02:23;;;;;;;4.93;1.40;;;16.30;99.90;;;;;;5041342;28;20080;-66
2022/09/24 13:05:10;;;;;;;6.82;1.63;;;16.40;99.90;;;;;;5042214;28;20045;-66
2022/09/24 13:07:39;;;;;;;4.82;1.23;;;16.50;99.90;;;;;;4997425;28;20052;-65
2022/09/24 13:10:17;;;;;;;3.40;1.60;;;16.40;99.90;;;;;;5045240;28;20123;-65